sensor_id;sensor_type;location;lat;lon;timestamp;pressure;altitude;pressure_sealevel;temperature;humidity
37450;BME280;23309;52.582;13.406;2022-12-07T00:01:41;100789.50;;;11.98;45.14
37450;BME280;23309;52.582;13.406;2022-12-07T00:04:13;100784.97;;;11.99;45.06
37450;BME280;23309;52.582;13.406;2022-12-07T00:06:42;100785.81;;;11.90;44.97
37450;BME280;23309;52.582;13.406;2022-12-07T00:09:12;100786.69;;;11.90;45.18
37450;BME280;23309;52.582;13.406;2022-12-07T00:11:38;100785.53;;;11.93;44.79
37450;BME280;23309;52.582;13.406;2022-12-07T00:14:07;100783.84;;;11.82;44.48
37450;BME280;23309;52.582;13.406;2022-12-07T00:16:34;100775.84;;;11.82;44.26
37450;BME280;23309;52.582;13.406;2022-12-07T00:19:01;100780.50;;;11.80;43.99
37450;BME280;23309;52.582;13.406;2022-12-07T00:21:32;100776.97;;;11.80;43.86
37450;BME280;23309;52.582;13.406;2022-12-07T00:23:59;100763.88;;;11.67;44.17
37450;BME280;23309;52.582;13.406;2022-12-07T00:26:28;100765.81;;;11.65;44.11
37450;BME280;23309;52.582;13.406;2022-12-07T00:28:57;100769.91;;;11.69;44.11
37450;BME280;23309;52.582;13.406;2022-12-07T00:31:25;100765.97;;;11.64;44.30
37450;BME280;23309;52.582;13.406;2022-12-07T00:33:52;100764.44;;;11.71;44.40
37450;BME280;23309;52.582;13.406;2022-12-07T00:36:22;100763.16;;;11.75;44.82
37450;BME280;23309;52.582;13.406;2022-12-07T00:38:51;100759.50;;;11.76;44.37
37450;BME280;23309;52.582;13.406;2022-12-07T00:41:19;100757.22;;;11.81;44.03
37450;BME280;23309;52.582;13.406;2022-12-07T00:43:47;100735.69;;;11.73;43.98
37450;BME280;23309;52.582;13.406;2022-12-07T00:46:16;100757.81;;;11.84;44.28
37450;BME280;23309;52.582;13.406;2022-12-07T00:48:42;100752.59;;;11.83;43.45
37450;BME280;23309;52.582;13.406;2022-12-07T00:51:11;100758.22;;;11.80;43.66
37450;BME280;23309;52.582;13.406;2022-12-07T00:53:38;100750.06;;;11.81;43.70
37450;BME280;23309;52.582;13.406;2022-12-07T00:56:09;100754.88;;;11.78;43.34
37450;BME280;23309;52.582;13.406;2022-12-07T00:58:35;100752.03;;;11.70;43.37
37450;BME280;23309;52.582;13.406;2022-12-07T01:01:04;100737.13;;;11.67;43.54
37450;BME280;23309;52.582;13.406;2022-12-07T01:03:30;100747.41;;;11.62;43.75
37450;BME280;23309;52.582;13.406;2022-12-07T01:05:57;100739.75;;;11.58;43.45
37450;BME280;23309;52.582;13.406;2022-12-07T01:08:25;100745.09;;;11.58;43.31
37450;BME280;23309;52.582;13.406;2022-12-07T01:10:59;100728.78;;;11.51;43.02
37450;BME280;23309;52.582;13.406;2022-12-07T01:13:28;100740.03;;;11.45;43.34
37450;BME280;23309;52.582;13.406;2022-12-07T01:15:58;100725.25;;;11.41;43.69
37450;BME280;23309;52.582;13.406;2022-12-07T01:18:25;100724.41;;;11.41;43.67
37450;BME280;23309;52.582;13.406;2022-12-07T01:20:59;100732.44;;;11.50;43.89
37450;BME280;23309;52.582;13.406;2022-12-07T01:23:25;100726.38;;;11.48;43.71
37450;BME280;23309;52.582;13.406;2022-12-07T01:25:55;100725.09;;;11.52;43.48
37450;BME280;23309;52.582;13.406;2022-12-07T01:28:21;100730.44;;;11.52;43.80
37450;BME280;23309;52.582;13.406;2022-12-07T01:30:58;100717.41;;;11.68;43.53
37450;BME280;23309;52.582;13.406;2022-12-07T01:33:26;100721.03;;;11.58;43.74
37450;BME280;23309;52.582;13.406;2022-12-07T01:35:52;100715.31;;;11.62;43.64
37450;BME280;23309;52.582;13.406;2022-12-07T01:38:18;100710.78;;;11.63;43.70
37450;BME280;23309;52.582;13.406;2022-12-07T01:40:44;100721.75;;;11.69;43.27
37450;BME280;23309;52.582;13.406;2022-12-07T01:43:16;100713.84;;;11.77;43.28
37450;BME280;23309;52.582;13.406;2022-12-07T01:45:42;100713.44;;;11.72;43.33
37450;BME280;23309;52.582;13.406;2022-12-07T01:48:14;100708.06;;;11.82;42.89
37450;BME280;23309;52.582;13.406;2022-12-07T01:50:43;100712.03;;;11.78;42.73
37450;BME280;23309;52.582;13.406;2022-12-07T01:53:11;100700.75;;;11.74;42.30
37450;BME280;23309;52.582;13.406;2022-12-07T01:55:42;100692.03;;;11.63;42.27
37450;BME280;23309;52.582;13.406;2022-12-07T01:58:10;100709.09;;;11.62;42.40
37450;BME280;23309;52.582;13.406;2022-12-07T02:00:37;100688.91;;;11.58;42.40
37450;BME280;23309;52.582;13.406;2022-12-07T02:03:07;100686.81;;;11.61;42.85
37450;BME280;23309;52.582;13.406;2022-12-07T02:05:40;100686.38;;;11.56;42.44
37450;BME280;23309;52.582;13.406;2022-12-07T02:08:08;100692.31;;;11.50;42.63
37450;BME280;23309;52.582;13.406;2022-12-07T02:10:34;100692.59;;;11.47;42.41
37450;BME280;23309;52.582;13.406;2022-12-07T02:13:05;100685.56;;;11.46;42.68
37450;BME280;23309;52.582;13.406;2022-12-07T02:15:51;100686.81;;;11.52;42.58
37450;BME280;23309;52.582;13.406;2022-12-07T02:18:25;100689.22;;;11.45;42.94
37450;BME280;23309;52.582;13.406;2022-12-07T02:21:05;100678.66;;;11.44;42.51
37450;BME280;23309;52.582;13.406;2022-12-07T02:24:10;100672.50;;;11.62;42.19
37450;BME280;23309;52.582;13.406;2022-12-07T02:27:28;100668.38;;;11.49;41.52
37450;BME280;23309;52.582;13.406;2022-12-07T02:30:04;100670.50;;;11.17;42.31
37450;BME280;23309;52.582;13.406;2022-12-07T02:32:40;100669.81;;;11.15;42.49
37450;BME280;23309;52.582;13.406;2022-12-07T02:35:12;100664.75;;;11.12;42.99
37450;BME280;23309;52.582;13.406;2022-12-07T02:37:45;100658.53;;;11.11;42.65
37450;BME280;23309;52.582;13.406;2022-12-07T02:40:20;100652.38;;;11.11;42.79
37450;BME280;23309;52.582;13.406;2022-12-07T02:42:53;100660.66;;;11.08;42.72
37450;BME280;23309;52.582;13.406;2022-12-07T02:45:26;100661.78;;;11.05;42.74
37450;BME280;23309;52.582;13.406;2022-12-07T02:47:58;100640.25;;;10.97;42.94
37450;BME280;23309;52.582;13.406;2022-12-07T02:50:25;100648.00;;;11.00;43.09
37450;BME280;23309;52.582;13.406;2022-12-07T02:52:51;100645.03;;;11.03;43.33
37450;BME280;23309;52.582;13.406;2022-12-07T02:55:23;100638.28;;;10.99;42.89
37450;BME280;23309;52.582;13.406;2022-12-07T02:58:07;100638.00;;;11.02;42.96
37450;BME280;23309;52.582;13.406;2022-12-07T03:00:49;100637.72;;;10.96;43.11
37450;BME280;23309;52.582;13.406;2022-12-07T03:03:17;100631.50;;;10.76;43.72
37450;BME280;23309;52.582;13.406;2022-12-07T03:06:16;100634.03;;;10.78;43.58
37450;BME280;23309;52.582;13.406;2022-12-07T03:08:53;100624.31;;;10.58;44.27
37450;BME280;23309;52.582;13.406;2022-12-07T03:11:25;100619.81;;;10.49;44.56
37450;BME280;23309;52.582;13.406;2022-12-07T03:14:01;100608.84;;;10.52;44.69
37450;BME280;23309;52.582;13.406;2022-12-07T03:16:35;100600.09;;;10.40;44.89
37450;BME280;23309;52.582;13.406;2022-12-07T03:19:09;100601.38;;;10.36;45.12
37450;BME280;23309;52.582;13.406;2022-12-07T03:21:40;100607.38;;;10.28;45.16
37450;BME280;23309;52.582;13.406;2022-12-07T03:24:12;100605.00;;;10.26;45.42
37450;BME280;23309;52.582;13.406;2022-12-07T03:26:42;100586.81;;;10.19;45.61
37450;BME280;23309;52.582;13.406;2022-12-07T03:29:14;100589.78;;;10.17;45.85
37450;BME280;23309;52.582;13.406;2022-12-07T03:31:51;100588.38;;;10.22;46.16
37450;BME280;23309;52.582;13.406;2022-12-07T03:34:27;100581.53;;;10.29;45.94
37450;BME280;23309;52.582;13.406;2022-12-07T03:37:00;100573.81;;;10.36;46.18
37450;BME280;23309;52.582;13.406;2022-12-07T03:39:34;100576.91;;;10.41;46.16
37450;BME280;23309;52.582;13.406;2022-12-07T03:42:05;100566.25;;;10.50;46.17
37450;BME280;23309;52.582;13.406;2022-12-07T03:44:33;100560.19;;;10.48;46.24
37450;BME280;23309;52.582;13.406;2022-12-07T03:47:06;100553.59;;;10.52;46.33
37450;BME280;23309;52.582;13.406;2022-12-07T03:49:42;100546.59;;;10.61;46.29
37450;BME280;23309;52.582;13.406;2022-12-07T03:52:18;100535.91;;;10.61;46.18
37450;BME280;23309;52.582;13.406;2022-12-07T03:54:49;100542.09;;;10.71;46.15
37450;BME280;23309;52.582;13.406;2022-12-07T03:57:18;100527.03;;;10.70;46.20
37450;BME280;23309;52.582;13.406;2022-12-07T03:59:45;100526.47;;;10.66;46.34
37450;BME280;23309;52.582;13.406;2022-12-07T04:02:15;100534.06;;;10.71;46.17
37450;BME280;23309;52.582;13.406;2022-12-07T04:04:42;100529.97;;;10.57;46.44
37450;BME280;23309;52.582;13.406;2022-12-07T04:07:09;100532.78;;;10.46;46.70
37450;BME280;23309;52.582;13.406;2022-12-07T04:09:35;100524.22;;;10.43;47.00
37450;BME280;23309;52.582;13.406;2022-12-07T04:12:01;100535.03;;;10.41;47.37
37450;BME280;23309;52.582;13.406;2022-12-07T04:14:27;100526.31;;;10.39;47.23
37450;BME280;23309;52.582;13.406;2022-12-07T04:16:55;100519.16;;;10.40;47.42
37450;BME280;23309;52.582;13.406;2022-12-07T04:19:27;100519.44;;;10.46;47.68
37450;BME280;23309;52.582;13.406;2022-12-07T04:21:53;100520.13;;;10.48;47.64
37450;BME280;23309;52.582;13.406;2022-12-07T04:24:20;100509.31;;;10.50;47.80
37450;BME280;23309;52.582;13.406;2022-12-07T04:26:47;100508.34;;;10.41;47.89
37450;BME280;23309;52.582;13.406;2022-12-07T04:29:14;100503.56;;;10.45;47.75
37450;BME280;23309;52.582;13.406;2022-12-07T04:31:40;100497.22;;;10.46;47.73
37450;BME280;23309;52.582;13.406;2022-12-07T04:34:07;100487.66;;;10.43;47.78
37450;BME280;23309;52.582;13.406;2022-12-07T04:36:36;100491.63;;;10.49;47.92
37450;BME280;23309;52.582;13.406;2022-12-07T04:39:04;100488.66;;;10.42;48.00
37450;BME280;23309;52.582;13.406;2022-12-07T04:41:30;100485.00;;;10.43;48.08
37450;BME280;23309;52.582;13.406;2022-12-07T04:43:59;100489.66;;;10.41;48.24
37450;BME280;23309;52.582;13.406;2022-12-07T04:46:26;100488.09;;;10.29;48.47
37450;BME280;23309;52.582;13.406;2022-12-07T04:48:54;100485.25;;;10.40;48.47
37450;BME280;23309;52.582;13.406;2022-12-07T04:51:23;100490.06;;;10.46;48.48
37450;BME280;23309;52.582;13.406;2022-12-07T04:53:52;100496.53;;;10.44;48.56
37450;BME280;23309;52.582;13.406;2022-12-07T04:56:19;100476.72;;;10.46;48.78
37450;BME280;23309;52.582;13.406;2022-12-07T04:58:47;100484.16;;;10.52;48.58
37450;BME280;23309;52.582;13.406;2022-12-07T05:01:15;100479.81;;;10.51;48.70
37450;BME280;23309;52.582;13.406;2022-12-07T05:03:42;100471.81;;;10.61;48.56
37450;BME280;23309;52.582;13.406;2022-12-07T05:06:09;100474.31;;;10.53;48.73
37450;BME280;23309;52.582;13.406;2022-12-07T05:08:36;100476.56;;;10.57;48.80
37450;BME280;23309;52.582;13.406;2022-12-07T05:11:06;100458.72;;;10.58;48.91
37450;BME280;23309;52.582;13.406;2022-12-07T05:13:33;100455.34;;;10.65;48.61
37450;BME280;23309;52.582;13.406;2022-12-07T05:15:59;100459.13;;;10.72;48.79
37450;BME280;23309;52.582;13.406;2022-12-07T05:18:25;100461.63;;;10.74;48.63
37450;BME280;23309;52.582;13.406;2022-12-07T05:20:52;100459.28;;;10.71;48.64
37450;BME280;23309;52.582;13.406;2022-12-07T05:23:18;100462.75;;;10.81;48.73
37450;BME280;23309;52.582;13.406;2022-12-07T05:25:46;100462.50;;;10.84;48.55
37450;BME280;23309;52.582;13.406;2022-12-07T05:28:14;100454.34;;;10.76;48.73
37450;BME280;23309;52.582;13.406;2022-12-07T05:30:40;100462.75;;;10.71;49.14
37450;BME280;23309;52.582;13.406;2022-12-07T05:33:07;100451.94;;;10.73;49.01
37450;BME280;23309;52.582;13.406;2022-12-07T05:35:33;100447.00;;;10.87;48.71
37450;BME280;23309;52.582;13.406;2022-12-07T05:37:59;100452.88;;;11.00;48.63
37450;BME280;23309;52.582;13.406;2022-12-07T05:40:25;100452.44;;;11.05;48.50
37450;BME280;23309;52.582;13.406;2022-12-07T05:42:51;100451.13;;;11.18;47.96
37450;BME280;23309;52.582;13.406;2022-12-07T05:45:20;100449.47;;;11.17;48.32
37450;BME280;23309;52.582;13.406;2022-12-07T05:47:46;100443.25;;;11.17;48.20
37450;BME280;23309;52.582;13.406;2022-12-07T05:50:12;100430.22;;;11.04;48.13
37450;BME280;23309;52.582;13.406;2022-12-07T05:52:38;100438.09;;;11.06;48.48
37450;BME280;23309;52.582;13.406;2022-12-07T05:55:06;100433.72;;;11.05;48.76
37450;BME280;23309;52.582;13.406;2022-12-07T05:57:33;100422.31;;;11.12;48.73
37450;BME280;23309;52.582;13.406;2022-12-07T05:59:59;100421.72;;;11.18;48.47
37450;BME280;23309;52.582;13.406;2022-12-07T06:02:28;100426.34;;;11.26;48.66
37450;BME280;23309;52.582;13.406;2022-12-07T06:04:54;100406.94;;;11.24;48.69
37450;BME280;23309;52.582;13.406;2022-12-07T06:07:20;100408.38;;;11.18;48.44
37450;BME280;23309;52.582;13.406;2022-12-07T06:09:47;100406.19;;;11.31;48.57
37450;BME280;23309;52.582;13.406;2022-12-07T06:12:16;100394.63;;;11.40;48.26
37450;BME280;23309;52.582;13.406;2022-12-07T06:14:43;100405.47;;;11.39;48.06
37450;BME280;23309;52.582;13.406;2022-12-07T06:17:10;100401.81;;;11.30;48.39
37450;BME280;23309;52.582;13.406;2022-12-07T06:19:39;100410.22;;;11.45;47.99
37450;BME280;23309;52.582;13.406;2022-12-07T06:22:06;100397.56;;;11.37;48.02
37450;BME280;23309;52.582;13.406;2022-12-07T06:24:33;100392.00;;;11.21;48.14
37450;BME280;23309;52.582;13.406;2022-12-07T06:26:59;100404.34;;;11.32;48.35
37450;BME280;23309;52.582;13.406;2022-12-07T06:29:25;100398.22;;;11.22;48.77
37450;BME280;23309;52.582;13.406;2022-12-07T06:31:52;100397.28;;;11.40;48.42
37450;BME280;23309;52.582;13.406;2022-12-07T06:34:20;100398.44;;;11.38;48.52
37450;BME280;23309;52.582;13.406;2022-12-07T06:36:50;100394.50;;;11.32;48.77
37450;BME280;23309;52.582;13.406;2022-12-07T06:39:16;100399.72;;;11.34;48.67
37450;BME280;23309;52.582;13.406;2022-12-07T06:41:43;100394.38;;;11.34;48.77
37450;BME280;23309;52.582;13.406;2022-12-07T06:44:09;100404.59;;;11.38;48.67
37450;BME280;23309;52.582;13.406;2022-12-07T06:46:35;100386.50;;;11.32;48.83
37450;BME280;23309;52.582;13.406;2022-12-07T06:49:01;100396.78;;;11.27;48.96
37450;BME280;23309;52.582;13.406;2022-12-07T06:51:28;100386.97;;;11.18;48.86
37450;BME280;23309;52.582;13.406;2022-12-07T06:53:56;100392.84;;;11.31;49.20
37450;BME280;23309;52.582;13.406;2022-12-07T06:56:23;100393.56;;;11.24;49.09
37450;BME280;23309;52.582;13.406;2022-12-07T06:58:49;100398.47;;;11.28;49.23
37450;BME280;23309;52.582;13.406;2022-12-07T07:01:17;100386.28;;;11.43;48.90
37450;BME280;23309;52.582;13.406;2022-12-07T07:03:44;100386.59;;;11.40;49.17
37450;BME280;23309;52.582;13.406;2022-12-07T07:06:11;100397.53;;;11.47;49.10
37450;BME280;23309;52.582;13.406;2022-12-07T07:08:38;100387.03;;;11.63;49.04
37450;BME280;23309;52.582;13.406;2022-12-07T07:11:08;100393.63;;;11.68;48.64
37450;BME280;23309;52.582;13.406;2022-12-07T07:13:35;100388.75;;;11.81;48.19
37450;BME280;23309;52.582;13.406;2022-12-07T07:16:02;100381.19;;;11.77;48.42
37450;BME280;23309;52.582;13.406;2022-12-07T07:18:28;100389.22;;;11.77;48.52
37450;BME280;23309;52.582;13.406;2022-12-07T07:20:55;100386.09;;;11.81;48.58
37450;BME280;23309;52.582;13.406;2022-12-07T07:23:22;100391.28;;;11.83;48.22
37450;BME280;23309;52.582;13.406;2022-12-07T07:25:48;100387.75;;;11.65;48.23
37450;BME280;23309;52.582;13.406;2022-12-07T07:28:17;100366.72;;;11.43;48.54
37450;BME280;23309;52.582;13.406;2022-12-07T07:30:43;100382.25;;;11.66;48.61
37450;BME280;23309;52.582;13.406;2022-12-07T07:33:10;100382.69;;;11.62;48.77
37450;BME280;23309;52.582;13.406;2022-12-07T07:35:36;100386.91;;;11.55;48.72
37450;BME280;23309;52.582;13.406;2022-12-07T07:38:03;100382.09;;;11.68;48.83
37450;BME280;23309;52.582;13.406;2022-12-07T07:40:30;100389.16;;;11.59;48.38
37450;BME280;23309;52.582;13.406;2022-12-07T07:42:57;100397.00;;;11.70;48.46
37450;BME280;23309;52.582;13.406;2022-12-07T07:45:27;100400.38;;;11.90;48.24
37450;BME280;23309;52.582;13.406;2022-12-07T07:47:53;100393.06;;;11.92;47.79
37450;BME280;23309;52.582;13.406;2022-12-07T07:50:20;100388.25;;;11.78;47.95
37450;BME280;23309;52.582;13.406;2022-12-07T07:52:46;100391.91;;;11.94;47.56
37450;BME280;23309;52.582;13.406;2022-12-07T07:55:12;100386.75;;;11.83;47.50
37450;BME280;23309;52.582;13.406;2022-12-07T07:57:39;100390.91;;;11.95;47.62
37450;BME280;23309;52.582;13.406;2022-12-07T08:00:09;100383.81;;;11.86;47.57
37450;BME280;23309;52.582;13.406;2022-12-07T08:02:39;100397.88;;;12.06;46.94
37450;BME280;23309;52.582;13.406;2022-12-07T08:05:07;100399.56;;;12.07;47.08
37450;BME280;23309;52.582;13.406;2022-12-07T08:07:33;100395.66;;;12.01;46.87
37450;BME280;23309;52.582;13.406;2022-12-07T08:09:59;100404.91;;;11.89;47.08
37450;BME280;23309;52.582;13.406;2022-12-07T08:12:25;100396.56;;;11.92;46.90
37450;BME280;23309;52.582;13.406;2022-12-07T08:14:51;100399.09;;;11.94;46.82
37450;BME280;23309;52.582;13.406;2022-12-07T08:17:18;100399.72;;;12.05;46.50
37450;BME280;23309;52.582;13.406;2022-12-07T08:19:46;100396.97;;;12.15;46.25
37450;BME280;23309;52.582;13.406;2022-12-07T08:22:12;100399.94;;;12.12;46.45
37450;BME280;23309;52.582;13.406;2022-12-07T08:24:39;100404.78;;;12.08;46.12
37450;BME280;23309;52.582;13.406;2022-12-07T08:27:05;100402.00;;;12.00;46.42
37450;BME280;23309;52.582;13.406;2022-12-07T08:29:31;100412.72;;;12.18;46.13
37450;BME280;23309;52.582;13.406;2022-12-07T08:31:58;100416.25;;;12.18;45.87
37450;BME280;23309;52.582;13.406;2022-12-07T08:34:24;100409.22;;;12.17;46.21
37450;BME280;23309;52.582;13.406;2022-12-07T08:36:53;100410.59;;;12.21;46.08
37450;BME280;23309;52.582;13.406;2022-12-07T08:39:19;100414.78;;;12.24;46.15
37450;BME280;23309;52.582;13.406;2022-12-07T08:41:45;100417.00;;;12.28;45.59
37450;BME280;23309;52.582;13.406;2022-12-07T08:44:12;100425.41;;;12.33;45.64
37450;BME280;23309;52.582;13.406;2022-12-07T08:46:40;100414.41;;;12.36;44.95
37450;BME280;23309;52.582;13.406;2022-12-07T08:49:13;100429.25;;;12.31;45.16
37450;BME280;23309;52.582;13.406;2022-12-07T08:51:41;100422.91;;;12.32;45.29
37450;BME280;23309;52.582;13.406;2022-12-07T08:54:14;100430.53;;;12.27;45.38
37450;BME280;23309;52.582;13.406;2022-12-07T08:56:41;100422.31;;;12.20;45.28
37450;BME280;23309;52.582;13.406;2022-12-07T08:59:07;100433.44;;;12.33;44.97
37450;BME280;23309;52.582;13.406;2022-12-07T09:01:34;100431.88;;;12.23;44.60
37450;BME280;23309;52.582;13.406;2022-12-07T09:04:00;100441.44;;;12.25;44.89
37450;BME280;23309;52.582;13.406;2022-12-07T09:06:27;100446.47;;;12.28;45.01
37450;BME280;23309;52.582;13.406;2022-12-07T09:08:57;100435.81;;;12.36;44.71
37450;BME280;23309;52.582;13.406;2022-12-07T09:11:27;100439.22;;;12.38;44.49
37450;BME280;23309;52.582;13.406;2022-12-07T09:13:53;100440.25;;;12.45;44.17
37450;BME280;23309;52.582;13.406;2022-12-07T09:16:19;100445.31;;;12.48;43.60
37450;BME280;23309;52.582;13.406;2022-12-07T09:18:45;100441.56;;;12.41;43.63
37450;BME280;23309;52.582;13.406;2022-12-07T09:21:11;100445.91;;;12.42;43.71
37450;BME280;23309;52.582;13.406;2022-12-07T09:23:38;100440.84;;;12.57;43.18
37450;BME280;23309;52.582;13.406;2022-12-07T09:26:05;100441.63;;;12.49;42.17
37450;BME280;23309;52.582;13.406;2022-12-07T09:28:33;100441.03;;;12.38;41.32
37450;BME280;23309;52.582;13.406;2022-12-07T09:31:00;100450.91;;;12.37;40.99
37450;BME280;23309;52.582;13.406;2022-12-07T09:33:26;100443.94;;;12.27;41.24
37450;BME280;23309;52.582;13.406;2022-12-07T09:35:52;100454.19;;;12.31;41.35
37450;BME280;23309;52.582;13.406;2022-12-07T09:38:20;100455.94;;;12.40;41.18
37450;BME280;23309;52.582;13.406;2022-12-07T09:40:46;100463.59;;;12.53;40.94
37450;BME280;23309;52.582;13.406;2022-12-07T09:43:14;100464.06;;;12.48;41.41
37450;BME280;23309;52.582;13.406;2022-12-07T09:45:45;100466.00;;;12.38;41.51
37450;BME280;23309;52.582;13.406;2022-12-07T09:48:18;100470.44;;;12.47;41.50
37450;BME280;23309;52.582;13.406;2022-12-07T09:50:45;100471.50;;;12.37;41.60
37450;BME280;23309;52.582;13.406;2022-12-07T09:53:18;100468.28;;;12.51;41.03
37450;BME280;23309;52.582;13.406;2022-12-07T09:55:46;100465.91;;;12.30;40.78
37450;BME280;23309;52.582;13.406;2022-12-07T09:58:19;100466.28;;;12.35;41.67
37450;BME280;23309;52.582;13.406;2022-12-07T10:00:48;100463.91;;;12.32;41.00
37450;BME280;23309;52.582;13.406;2022-12-07T10:03:14;100457.69;;;12.14;41.45
37450;BME280;23309;52.582;13.406;2022-12-07T10:05:44;100466.34;;;12.26;41.88
37450;BME280;23309;52.582;13.406;2022-12-07T10:08:12;100472.69;;;12.07;41.70
37450;BME280;23309;52.582;13.406;2022-12-07T10:10:39;100472.84;;;12.23;40.82
37450;BME280;23309;52.582;13.406;2022-12-07T10:13:07;100462.66;;;12.27;40.48
37450;BME280;23309;52.582;13.406;2022-12-07T10:15:49;100470.78;;;12.35;40.93
37450;BME280;23309;52.582;13.406;2022-12-07T10:18:26;100464.50;;;12.44;40.41
37450;BME280;23309;52.582;13.406;2022-12-07T10:21:08;100475.00;;;12.37;40.45
37450;BME280;23309;52.582;13.406;2022-12-07T10:23:38;100468.59;;;12.30;40.52
37450;BME280;23309;52.582;13.406;2022-12-07T10:26:31;100460.00;;;12.44;40.05
37450;BME280;23309;52.582;13.406;2022-12-07T10:29:00;100473.56;;;12.43;39.53
37450;BME280;23309;52.582;13.406;2022-12-07T10:31:30;100460.47;;;12.57;39.63
37450;BME280;23309;52.582;13.406;2022-12-07T10:33:58;100464.75;;;12.68;39.83
37450;BME280;23309;52.582;13.406;2022-12-07T10:36:27;100470.22;;;12.84;39.08
37450;BME280;23309;52.582;13.406;2022-12-07T10:39:00;100468.88;;;12.97;39.48
37450;BME280;23309;52.582;13.406;2022-12-07T10:41:28;100469.63;;;12.90;38.95
37450;BME280;23309;52.582;13.406;2022-12-07T10:43:56;100471.53;;;12.97;39.94
37450;BME280;23309;52.582;13.406;2022-12-07T10:47:08;100476.00;;;13.40;39.33
37450;BME280;23309;52.582;13.406;2022-12-07T10:50:14;100467.72;;;13.25;38.80
37450;BME280;23309;52.582;13.406;2022-12-07T10:52:59;100467.41;;;13.28;38.61
37450;BME280;23309;52.582;13.406;2022-12-07T10:55:52;100467.47;;;13.44;38.75
37450;BME280;23309;52.582;13.406;2022-12-07T10:58:40;100466.44;;;13.12;38.65
37450;BME280;23309;52.582;13.406;2022-12-07T11:01:18;100469.50;;;13.17;38.88
37450;BME280;23309;52.582;13.406;2022-12-07T11:04:14;100458.28;;;13.21;39.12
37450;BME280;23309;52.582;13.406;2022-12-07T11:06:53;100458.34;;;13.04;39.44
37450;BME280;23309;52.582;13.406;2022-12-07T11:09:49;100462.72;;;13.05;39.52
37450;BME280;23309;52.582;13.406;2022-12-07T11:12:29;100456.09;;;13.17;39.69
37450;BME280;23309;52.582;13.406;2022-12-07T11:15:11;100467.94;;;13.14;39.51
37450;BME280;23309;52.582;13.406;2022-12-07T11:17:48;100455.56;;;13.13;39.95
37450;BME280;23309;52.582;13.406;2022-12-07T11:20:32;100471.53;;;13.23;39.47
37450;BME280;23309;52.582;13.406;2022-12-07T11:23:10;100460.56;;;13.08;39.79
37450;BME280;23309;52.582;13.406;2022-12-07T11:25:47;100460.75;;;13.15;39.83
37450;BME280;23309;52.582;13.406;2022-12-07T11:28:30;100454.13;;;13.27;39.69
37450;BME280;23309;52.582;13.406;2022-12-07T11:31:12;100450.03;;;13.15;39.75
37450;BME280;23309;52.582;13.406;2022-12-07T11:33:45;100437.13;;;13.18;39.75
37450;BME280;23309;52.582;13.406;2022-12-07T11:36:33;100442.66;;;13.42;39.36
37450;BME280;23309;52.582;13.406;2022-12-07T11:39:08;100437.19;;;13.26;39.65
37450;BME280;23309;52.582;13.406;2022-12-07T11:41:40;100444.41;;;13.26;39.84
37450;BME280;23309;52.582;13.406;2022-12-07T11:44:15;100443.13;;;13.38;40.08
37450;BME280;23309;52.582;13.406;2022-12-07T11:46:49;100443.06;;;13.55;39.77
37450;BME280;23309;52.582;13.406;2022-12-07T11:49:23;100439.69;;;13.53;39.36
37450;BME280;23309;52.582;13.406;2022-12-07T11:51:59;100430.41;;;13.40;39.87
37450;BME280;23309;52.582;13.406;2022-12-07T11:54:32;100439.78;;;13.36;39.42
37450;BME280;23309;52.582;13.406;2022-12-07T11:57:05;100430.34;;;13.32;39.51
37450;BME280;23309;52.582;13.406;2022-12-07T11:59:40;100427.19;;;13.36;39.66
37450;BME280;23309;52.582;13.406;2022-12-07T12:02:14;100435.56;;;13.33;39.48
37450;BME280;23309;52.582;13.406;2022-12-07T12:04:51;100437.81;;;13.46;39.67
37450;BME280;23309;52.582;13.406;2022-12-07T12:07:26;100423.91;;;13.17;40.14
37450;BME280;23309;52.582;13.406;2022-12-07T12:09:56;100424.09;;;13.23;40.14
37450;BME280;23309;52.582;13.406;2022-12-07T12:12:47;100418.16;;;13.45;39.82
37450;BME280;23309;52.582;13.406;2022-12-07T12:15:26;100415.16;;;13.48;39.52
37450;BME280;23309;52.582;13.406;2022-12-07T12:18:22;100414.00;;;13.51;39.64
37450;BME280;23309;52.582;13.406;2022-12-07T12:20:55;100406.47;;;13.21;39.52
37450;BME280;23309;52.582;13.406;2022-12-07T12:23:35;100408.75;;;13.33;39.94
37450;BME280;23309;52.582;13.406;2022-12-07T12:26:05;100409.41;;;13.35;40.02
37450;BME280;23309;52.582;13.406;2022-12-07T12:28:39;100404.59;;;13.47;40.10
37450;BME280;23309;52.582;13.406;2022-12-07T12:31:11;100419.88;;;13.54;39.67
37450;BME280;23309;52.582;13.406;2022-12-07T12:33:43;100413.16;;;13.50;39.68
37450;BME280;23309;52.582;13.406;2022-12-07T12:36:26;100404.31;;;13.66;39.84
37450;BME280;23309;52.582;13.406;2022-12-07T12:39:13;100407.00;;;13.66;39.40
37450;BME280;23309;52.582;13.406;2022-12-07T12:41:59;100409.84;;;13.56;39.83
37450;BME280;23309;52.582;13.406;2022-12-07T12:44:46;100406.09;;;13.49;40.09
37450;BME280;23309;52.582;13.406;2022-12-07T12:47:58;100387.31;;;13.49;39.74
37450;BME280;23309;52.582;13.406;2022-12-07T12:50:28;100405.91;;;13.43;39.97
37450;BME280;23309;52.582;13.406;2022-12-07T12:53:21;100388.72;;;13.61;39.73
37450;BME280;23309;52.582;13.406;2022-12-07T12:56:26;100405.50;;;13.63;39.76
37450;BME280;23309;52.582;13.406;2022-12-07T12:59:22;100392.06;;;13.55;39.63
37450;BME280;23309;52.582;13.406;2022-12-07T13:01:50;100402.41;;;13.42;40.26